Enter the Airport ICAO Code

Search by Airport or City

Current Weather

GCTS | Tenerife-South Airport (Reina Sofia Airport)

Tenerife, Canary Islands, Spain

Last Update 10 Minutes Ago

Clear Sky

Temperature of 26 ºC

Moderate to Strong Winds from East

Temperature

26 ºC

Dew Point Temperature

19 ºC

Relative Humidity

65.52 %

Wind Direction

East (100º, Without Significant Variations)

Wind Velocity

35 km/h (19 kt)

Gusts

None

Visibility

No Significant Reductions

Sea Level Pressure

1018 hPa (Hectopascals)

Layers of Clouds

None

METAR GCTS 131200Z 10019KT CAVOK 26/19 Q1018 NOSIG

Weather Forecast

GCTS | Tenerife-South Airport (Reina Sofia Airport)

Tenerife, Canary Islands, Spain

Forecast valid for the next 21 Hours

From now on it is expected:

Moderate Winds from East

In 7 to 9 hours it is expected the begining of:

Light to Moderate Winds from West

Maximum Temperature

28 ºC in 2 Hours

Minimum Temperature

20 ºC in 18 Hours

TAF GCTS 130800Z 1309/1409 04005KT CAVOK TX28/1314Z TN20/1406Z BECMG 1309/1311 10015KT BECMG 1319/1321 28005KT